Time;durP1;ratioP1;P1;durP2;ratioP2;P2;SDS_P1;SDS_P2;PMS_P1;PMS_P2;Temp;Humidity;BMP_temperature;BMP_pressure;BME280_temperature;BME280_humidity;BME280_pressure;Samples;Min_cycle;Max_cycle;Signal;HPM_P1;HPM_P2
2023/10/21 00:00:33;;;;;;;0.17;0.17;;;9.30;99.90;;;;;;5008233;28;20049;-75
2023/10/21 00:02:59;;;;;;;0.10;0.10;;;9.40;99.90;;;;;;5013887;28;20046;-75
2023/10/21 00:05:25;;;;;;;0.10;0.10;;;9.60;99.90;;;;;;5011325;28;20407;-74
2023/10/21 00:07:51;;;;;;;0.10;0.10;;;9.40;99.90;;;;;;5008156;28;20040;-74
2023/10/21 00:10:17;;;;;;;0.10;0.10;;;9.40;99.90;;;;;;5006258;28;20045;-75
2023/10/21 00:12:44;;;;;;;0.10;0.10;;;9.50;99.90;;;;;;5005069;28;20042;-75
2023/10/21 00:15:10;;;;;;;0.10;0.10;;;9.50;99.90;;;;;;5013810;28;20088;-74
2023/10/21 00:17:36;;;;;;;0.13;0.13;;;9.50;99.90;;;;;;5013647;28;20052;-74
2023/10/21 00:20:06;;;;;;;0.20;0.20;;;9.60;99.90;;;;;;5025916;28;20485;-75
2023/10/21 00:22:32;;;;;;;0.10;0.10;;;9.60;99.90;;;;;;5012354;28;20073;-75
2023/10/21 00:24:57;;;;;;;0.20;0.20;;;9.60;99.90;;;;;;5012028;28;20088;-74
2023/10/21 00:27:23;;;;;;;0.10;0.10;;;9.60;99.90;;;;;;5011789;28;20568;-75
2023/10/21 00:29:49;;;;;;;0.20;0.20;;;9.60;99.90;;;;;;5010200;28;20049;-74
2023/10/21 00:32:16;;;;;;;0.10;0.10;;;9.70;99.90;;;;;;5032273;28;20041;-75
2023/10/21 00:34:41;;;;;;;0.20;0.20;;;9.60;99.90;;;;;;4967548;28;1097186;-74
2023/10/21 00:37:08;;;;;;;0.20;0.20;;;9.70;99.90;;;;;;4999985;28;20053;-74
2023/10/21 00:39:34;;;;;;;0.20;0.20;;;9.70;99.90;;;;;;5011044;28;20100;-74
2023/10/21 00:42:04;;;;;;;0.20;0.20;;;9.80;99.90;;;;;;5008667;28;20061;-75
2023/10/21 00:44:31;;;;;;;0.20;0.20;;;9.70;99.90;;;;;;5015258;28;20037;-75
2023/10/21 00:46:59;;;;;;;0.20;0.20;;;9.70;99.90;;;;;;5014315;28;20033;-75
2023/10/21 00:49:28;;;;;;;0.20;0.20;;;9.80;99.90;;;;;;5011114;28;20088;-75
2023/10/21 00:51:54;;;;;;;0.10;0.10;;;9.90;99.90;;;;;;5030392;28;20488;-75
2023/10/21 00:54:20;;;;;;;0.20;0.20;;;9.90;99.90;;;;;;5012150;28;20136;-75
2023/10/21 00:56:45;;;;;;;0.10;0.10;;;10.00;99.90;;;;;;5028197;28;20041;-75
2023/10/21 00:59:12;;;;;;;0.20;0.20;;;9.90;99.90;;;;;;5010316;28;20050;-75
2023/10/21 01:01:37;;;;;;;0.20;0.20;;;10.00;99.90;;;;;;5012100;28;20042;-75
2023/10/21 01:04:04;;;;;;;0.10;0.10;;;10.00;99.90;;;;;;5007889;28;20500;-76
2023/10/21 01:06:33;;;;;;;0.20;0.20;;;10.00;99.90;;;;;;5030513;28;20061;-76
2023/10/21 01:08:59;;;;;;;0.20;0.20;;;10.10;99.90;;;;;;5030288;28;20128;-76
2023/10/21 01:11:25;;;;;;;0.20;0.20;;;10.10;99.90;;;;;;5025178;28;20603;-76
2023/10/21 01:13:51;;;;;;;0.10;0.10;;;10.20;99.90;;;;;;5008634;28;20488;-76
2023/10/21 01:16:17;;;;;;;0.20;0.20;;;10.10;99.90;;;;;;5010305;28;20053;-76
2023/10/21 01:18:43;;;;;;;0.20;0.20;;;10.20;99.90;;;;;;5026949;28;20057;-75
2023/10/21 01:21:09;;;;;;;0.30;0.30;;;10.20;99.90;;;;;;5026136;28;20413;-76
2023/10/21 01:23:35;;;;;;;0.10;0.10;;;10.20;99.90;;;;;;5010590;28;20048;-75
2023/10/21 01:26:05;;;;;;;0.10;0.10;;;10.20;99.90;;;;;;5027199;28;20033;-75
2023/10/21 01:28:32;;;;;;;0.20;0.20;;;10.20;99.90;;;;;;5006402;28;20052;-76
2023/10/21 01:30:58;;;;;;;0.20;0.20;;;10.40;99.90;;;;;;5013842;28;20134;-76
2023/10/21 01:33:24;;;;;;;0.20;0.20;;;10.30;99.90;;;;;;5009520;28;20049;-76
2023/10/21 01:35:50;;;;;;;0.10;0.10;;;10.40;99.90;;;;;;5010584;28;20117;-76
2023/10/21 01:38:15;;;;;;;0.20;0.20;;;10.30;99.90;;;;;;5007676;28;20045;-76
2023/10/21 01:40:41;;;;;;;0.20;0.20;;;10.40;99.90;;;;;;5026693;28;20065;-76
2023/10/21 01:43:07;;;;;;;0.22;0.22;;;10.40;99.90;;;;;;5011436;28;20052;-76
2023/10/21 01:45:37;;;;;;;0.20;0.20;;;10.40;99.90;;;;;;5006614;28;20473;-75
2023/10/21 01:48:03;;;;;;;0.10;0.10;;;10.30;99.90;;;;;;5027095;28;20056;-76
2023/10/21 01:50:29;;;;;;;0.20;0.20;;;10.40;99.90;;;;;;5013137;28;20452;-76
2023/10/21 01:52:56;;;;;;;0.20;0.20;;;10.30;99.90;;;;;;5008279;28;20049;-77
2023/10/21 01:55:22;;;;;;;0.20;0.20;;;10.30;99.90;;;;;;5009433;28;20609;-76
2023/10/21 01:57:48;;;;;;;0.10;0.10;;;10.30;99.90;;;;;;5004195;28;20052;-76
2023/10/21 02:00:18;;;;;;;0.10;0.10;;;10.30;99.90;;;;;;4994063;28;20452;-76
2023/10/21 02:02:57;;;;;;;0.20;0.20;;;10.20;99.90;;;;;;5003610;28;20045;-76
2023/10/21 02:05:24;;;;;;;0.20;0.20;;;10.20;99.90;;;;;;5012654;28;20124;-76
2023/10/21 02:07:50;;;;;;;0.10;0.10;;;10.40;99.90;;;;;;5010678;28;20049;-75
2023/10/21 02:10:18;;;;;;;0.10;0.10;;;10.30;99.90;;;;;;5011680;28;20051;-76
2023/10/21 02:12:44;;;;;;;0.20;0.20;;;10.30;99.90;;;;;;5007426;28;20050;-76
2023/10/21 02:15:16;;;;;;;0.10;0.10;;;10.40;99.90;;;;;;5012284;28;20069;-76
2023/10/21 02:17:44;;;;;;;0.10;0.10;;;10.30;99.90;;;;;;5011650;28;20092;-76
2023/10/21 02:20:12;;;;;;;0.40;0.20;;;10.30;99.90;;;;;;5011566;28;20155;-76
2023/10/21 02:22:38;;;;;;;0.10;0.10;;;10.30;99.90;;;;;;5011200;28;20393;-75
2023/10/21 02:25:04;;;;;;;0.20;0.20;;;10.20;99.90;;;;;;5006980;28;20050;-75
2023/10/21 02:27:30;;;;;;;0.68;0.17;;;10.30;99.90;;;;;;5024501;28;20110;-76
2023/10/21 02:29:55;;;;;;;0.20;0.20;;;10.30;99.90;;;;;;5005958;28;20040;-75
2023/10/21 02:32:21;;;;;;;0.10;0.10;;;10.00;99.90;;;;;;5009290;28;20052;-76
2023/10/21 02:34:47;;;;;;;0.20;0.20;;;10.30;99.90;;;;;;5007502;28;20069;-76
2023/10/21 02:37:12;;;;;;;0.20;0.20;;;10.10;99.90;;;;;;5009960;28;20058;-75
2023/10/21 02:39:38;;;;;;;0.20;0.20;;;10.20;99.90;;;;;;5028936;28;20041;-75
2023/10/21 02:42:04;;;;;;;0.10;0.10;;;10.20;99.90;;;;;;5029030;28;20094;-75
2023/10/21 02:44:30;;;;;;;0.10;0.10;;;10.10;99.90;;;;;;5008851;28;20056;-76
2023/10/21 02:46:55;;;;;;;0.10;0.10;;;10.20;99.90;;;;;;4995894;28;20046;-76
2023/10/21 02:49:21;;;;;;;0.20;0.20;;;10.10;99.90;;;;;;5029239;28;20041;-76
2023/10/21 02:51:47;;;;;;;0.20;0.20;;;10.20;99.90;;;;;;5012703;28;20168;-76
2023/10/21 02:54:13;;;;;;;0.10;0.10;;;10.10;99.90;;;;;;5010904;28;20080;-76
2023/10/21 02:56:41;;;;;;;0.10;0.10;;;10.10;99.90;;;;;;5007278;28;20053;-76
2023/10/21 02:59:07;;;;;;;0.10;0.10;;;10.10;99.90;;;;;;5010256;28;20128;-76
2023/10/21 03:01:33;;;;;;;0.20;0.20;;;10.10;99.90;;;;;;5009800;28;20041;-76
2023/10/21 03:03:59;;;;;;;0.20;0.20;;;10.10;99.90;;;;;;5025605;28;20045;-76
2023/10/21 03:06:24;;;;;;;0.13;0.13;;;10.10;99.90;;;;;;5012873;28;20120;-75
2023/10/21 03:08:50;;;;;;;0.20;0.20;;;10.10;99.90;;;;;;5008540;28;20128;-75
2023/10/21 03:11:15;;;;;;;0.10;0.10;;;10.10;99.90;;;;;;5005316;28;20172;-75
2023/10/21 03:13:41;;;;;;;0.13;0.13;;;10.00;99.90;;;;;;5008645;28;20124;-76
2023/10/21 03:16:09;;;;;;;0.10;0.10;;;10.10;99.90;;;;;;5030408;28;20492;-75
2023/10/21 03:18:35;;;;;;;0.20;0.20;;;10.10;99.90;;;;;;5025097;28;20116;-74
2023/10/21 03:21:02;;;;;;;0.20;0.20;;;10.10;99.90;;;;;;5010971;28;20057;-76
2023/10/21 03:23:28;;;;;;;0.13;0.13;;;10.00;99.90;;;;;;5010925;28;20472;-76
2023/10/21 03:25:55;;;;;;;0.20;0.20;;;10.10;99.90;;;;;;5007771;28;20124;-75
2023/10/21 03:28:22;;;;;;;0.10;0.10;;;10.10;99.90;;;;;;5005380;28;20051;-75
2023/10/21 03:30:48;;;;;;;0.20;0.20;;;10.10;99.90;;;;;;5028489;28;20072;-76
2023/10/21 03:33:14;;;;;;;0.10;0.10;;;10.00;99.90;;;;;;5008084;28;20053;-76
2023/10/21 03:35:39;;;;;;;0.10;0.10;;;10.10;99.90;;;;;;5010557;28;20076;-76
2023/10/21 03:38:05;;;;;;;0.20;0.20;;;10.00;99.90;;;;;;5009597;28;20539;-75
2023/10/21 03:40:31;;;;;;;0.17;0.17;;;10.00;99.90;;;;;;5005722;28;20385;-75
2023/10/21 03:42:56;;;;;;;0.20;0.20;;;10.10;99.90;;;;;;5006612;28;20077;-76
2023/10/21 03:45:22;;;;;;;0.10;0.10;;;10.10;99.90;;;;;;5005873;28;20455;-75
2023/10/21 03:47:48;;;;;;;0.10;0.10;;;10.10;99.90;;;;;;5009627;28;20481;-74
2023/10/21 03:50:14;;;;;;;0.20;0.20;;;10.00;99.90;;;;;;5006847;28;20046;-76
2023/10/21 03:52:40;;;;;;;0.20;0.20;;;10.00;99.90;;;;;;5011522;28;20381;-75
2023/10/21 03:55:06;;;;;;;0.20;0.20;;;10.00;99.90;;;;;;5009984;28;20049;-76
2023/10/21 03:57:32;;;;;;;0.20;0.20;;;10.10;99.90;;;;;;5017146;28;20443;-76
2023/10/21 04:00:00;;;;;;;0.10;0.10;;;10.00;99.90;;;;;;5010265;28;20034;-76
2023/10/21 04:02:26;;;;;;;0.10;0.10;;;10.10;99.90;;;;;;5010702;28;20160;-76
2023/10/21 04:04:51;;;;;;;0.10;0.10;;;10.00;99.90;;;;;;5007643;28;20122;-76
2023/10/21 04:07:17;;;;;;;0.10;0.10;;;10.00;99.90;;;;;;5023906;28;20046;-76
2023/10/21 04:09:43;;;;;;;0.20;0.20;;;10.00;99.90;;;;;;5012643;28;20045;-76
2023/10/21 04:12:09;;;;;;;0.10;0.10;;;10.00;99.90;;;;;;5014666;28;20061;-75
2023/10/21 04:14:36;;;;;;;0.20;0.20;;;10.20;99.90;;;;;;5012224;28;20567;-75
2023/10/21 04:17:02;;;;;;;0.10;0.10;;;10.20;99.90;;;;;;5013920;28;20447;-75
2023/10/21 04:19:30;;;;;;;0.10;0.10;;;10.10;99.90;;;;;;5010775;28;20045;-76
2023/10/21 04:21:55;;;;;;;0.20;0.20;;;10.20;99.90;;;;;;5007106;28;20157;-76
2023/10/21 04:24:21;;;;;;;0.10;0.10;;;10.00;99.90;;;;;;5011989;28;20503;-76
2023/10/21 04:26:47;;;;;;;0.20;0.20;;;10.00;99.90;;;;;;5011053;28;20072;-76
2023/10/21 04:29:12;;;;;;;0.10;0.10;;;10.00;99.90;;;;;;5025374;28;20366;-76
2023/10/21 04:31:39;;;;;;;0.10;0.10;;;10.00;99.90;;;;;;5013197;28;20068;-76
2023/10/21 04:34:04;;;;;;;0.10;0.10;;;10.00;99.90;;;;;;5011346;28;20065;-77
2023/10/21 04:36:30;;;;;;;0.10;0.10;;;10.00;99.90;;;;;;5014269;28;20106;-76
2023/10/21 04:38:56;;;;;;;0.10;0.10;;;10.10;99.90;;;;;;5005483;28;20133;-77
2023/10/21 04:41:21;;;;;;;0.13;0.13;;;10.10;99.90;;;;;;5007716;28;20373;-76
2023/10/21 04:43:47;;;;;;;0.20;0.20;;;10.00;99.90;;;;;;5011127;28;20063;-75
2023/10/21 04:46:13;;;;;;;0.10;0.10;;;10.00;99.90;;;;;;5032870;28;20045;-76
2023/10/21 04:48:39;;;;;;;0.10;0.10;;;10.00;99.90;;;;;;5027583;28;20042;-76
2023/10/21 04:51:04;;;;;;;0.20;0.20;;;10.00;99.90;;;;;;5031214;28;20045;-76
2023/10/21 04:53:30;;;;;;;0.20;0.20;;;10.10;99.90;;;;;;5012717;28;20045;-76
2023/10/21 04:55:56;;;;;;;0.20;0.20;;;10.00;99.90;;;;;;5029185;28;20048;-76
2023/10/21 04:58:21;;;;;;;0.10;0.10;;;9.90;99.90;;;;;;5030729;28;20048;-76
2023/10/21 05:00:47;;;;;;;0.20;0.20;;;10.00;99.90;;;;;;5031710;28;20046;-76
2023/10/21 05:03:13;;;;;;;0.10;0.10;;;10.00;99.90;;;;;;5029774;28;20037;-76
2023/10/21 05:05:39;;;;;;;0.20;0.20;;;10.00;99.90;;;;;;5011505;28;20045;-76
2023/10/21 05:08:05;;;;;;;0.15;0.15;;;10.00;99.90;;;;;;5011472;28;20397;-75
2023/10/21 05:10:30;;;;;;;0.10;0.10;;;9.90;99.90;;;;;;5030263;28;20041;-76
2023/10/21 05:12:56;;;;;;;0.20;0.20;;;10.00;99.90;;;;;;5031525;28;20041;-76
2023/10/21 05:15:23;;;;;;;0.20;0.20;;;9.90;99.90;;;;;;5033437;28;20044;-76
2023/10/21 05:17:49;;;;;;;0.10;0.10;;;10.00;99.90;;;;;;5012883;28;20103;-76
2023/10/21 05:20:15;;;;;;;0.10;0.10;;;9.90;99.90;;;;;;5029176;28;20053;-76
2023/10/21 05:22:41;;;;;;;0.20;0.20;;;9.90;99.90;;;;;;5031754;28;20048;-76
2023/10/21 05:25:09;;;;;;;0.10;0.10;;;9.90;99.90;;;;;;5021985;28;20046;-75
2023/10/21 05:27:35;;;;;;;0.10;0.10;;;10.00;99.90;;;;;;5012310;28;20389;-75
2023/10/21 05:30:01;;;;;;;0.10;0.10;;;9.90;99.90;;;;;;5014255;28;20492;-75
2023/10/21 05:32:26;;;;;;;0.20;0.20;;;9.90;99.90;;;;;;5009316;28;20104;-75
2023/10/21 05:34:52;;;;;;;0.10;0.10;;;10.00;99.90;;;;;;5031456;28;20580;-76
2023/10/21 05:37:17;;;;;;;0.20;0.20;;;9.90;99.90;;;;;;5030992;28;20069;-76
2023/10/21 05:39:43;;;;;;;0.10;0.10;;;10.00;99.90;;;;;;5028132;28;20045;-76
2023/10/21 05:42:09;;;;;;;0.10;0.10;;;9.80;99.90;;;;;;5008372;28;20386;-75
2023/10/21 05:44:35;;;;;;;0.13;0.13;;;10.00;99.90;;;;;;5028465;28;20045;-75
2023/10/21 05:47:01;;;;;;;0.10;0.10;;;9.90;99.90;;;;;;5011593;28;20056;-75
2023/10/21 05:49:26;;;;;;;0.20;0.20;;;9.90;99.90;;;;;;5008866;28;20050;-75
2023/10/21 05:51:52;;;;;;;0.10;0.10;;;10.00;99.90;;;;;;5010252;28;20402;-77
2023/10/21 05:54:17;;;;;;;0.20;0.20;;;10.00;99.90;;;;;;5009606;28;20045;-75
2023/10/21 05:56:43;;;;;;;0.20;0.20;;;10.00;99.90;;;;;;5008353;28;20096;-75
2023/10/21 05:59:09;;;;;;;0.20;0.20;;;9.90;99.90;;;;;;5021717;28;20041;-77
2023/10/21 06:01:34;;;;;;;0.20;0.20;;;10.00;99.90;;;;;;5029903;28;20045;-76
2023/10/21 06:04:00;;;;;;;0.20;0.20;;;10.00;99.90;;;;;;5012622;28;20528;-76
2023/10/21 06:06:26;;;;;;;0.20;0.20;;;10.10;99.90;;;;;;5031372;28;20041;-75
2023/10/21 06:08:52;;;;;;;0.17;0.17;;;10.00;99.90;;;;;;5007851;28;20592;-76
2023/10/21 06:11:18;;;;;;;0.20;0.20;;;10.10;99.90;;;;;;5028720;28;20420;-76
2023/10/21 06:13:43;;;;;;;0.10;0.10;;;10.00;99.90;;;;;;5031514;28;20045;-74
2023/10/21 06:16:09;;;;;;;0.20;0.20;;;10.10;99.90;;;;;;5013451;28;20142;-75
2023/10/21 06:18:36;;;;;;;0.20;0.20;;;10.00;99.90;;;;;;5006823;28;20788;-76
2023/10/21 06:21:02;;;;;;;0.10;0.10;;;10.10;99.90;;;;;;5002514;28;20103;-77
2023/10/21 06:23:28;;;;;;;0.20;0.20;;;10.00;99.90;;;;;;5027934;28;20496;-76
2023/10/21 06:25:54;;;;;;;0.20;0.20;;;10.10;99.90;;;;;;5026578;28;20046;-77
2023/10/21 06:28:20;;;;;;;0.10;0.10;;;10.10;99.90;;;;;;5028326;28;20042;-78
2023/10/21 06:30:46;;;;;;;0.20;0.20;;;10.10;99.90;;;;;;5011884;28;20046;-78
2023/10/21 06:33:11;;;;;;;0.10;0.10;;;10.10;99.90;;;;;;5011722;28;20046;-77
2023/10/21 06:35:38;;;;;;;0.10;0.10;;;10.10;99.90;;;;;;5028303;28;20086;-77
2023/10/21 06:38:05;;;;;;;0.13;0.13;;;10.20;99.90;;;;;;5008943;28;20053;-78
2023/10/21 06:40:31;;;;;;;0.10;0.10;;;10.20;99.90;;;;;;5009295;28;20041;-78
2023/10/21 06:42:57;;;;;;;0.10;0.10;;;10.20;99.90;;;;;;5011139;28;20053;-78
2023/10/21 06:45:23;;;;;;;0.20;0.20;;;10.20;99.90;;;;;;5005665;28;20049;-78
2023/10/21 06:47:49;;;;;;;0.20;0.20;;;10.20;99.90;;;;;;5023673;28;20046;-77
2023/10/21 06:50:14;;;;;;;0.10;0.10;;;10.20;99.90;;;;;;5026170;28;20042;-78
2023/10/21 06:52:40;;;;;;;0.10;0.10;;;10.20;99.90;;;;;;5013616;28;20053;-77
2023/10/21 06:55:07;;;;;;;0.20;0.20;;;10.30;99.90;;;;;;5006191;28;20074;-76
2023/10/21 06:57:33;;;;;;;0.20;0.20;;;10.30;99.90;;;;;;5007581;28;20044;-78
2023/10/21 06:59:59;;;;;;;0.17;0.17;;;10.30;99.90;;;;;;5011584;28;20045;-77
2023/10/21 07:02:25;;;;;;;0.10;0.10;;;10.30;99.90;;;;;;5022821;28;20049;-78
2023/10/21 07:04:50;;;;;;;0.20;0.20;;;10.30;99.90;;;;;;5022066;28;20029;-77
2023/10/21 07:07:16;;;;;;;0.20;0.20;;;10.40;99.90;;;;;;5004544;28;20552;-78
2023/10/21 07:09:42;;;;;;;0.10;0.10;;;10.40;99.90;;;;;;5026636;28;20117;-77
2023/10/21 07:12:07;;;;;;;0.10;0.10;;;10.30;99.90;;;;;;5025288;28;20212;-77
2023/10/21 07:14:33;;;;;;;0.10;0.10;;;10.40;99.90;;;;;;5026881;28;20495;-77
2023/10/21 07:17:02;;;;;;;0.10;0.10;;;10.40;99.90;;;;;;5026281;28;20052;-78
2023/10/21 07:19:29;;;;;;;0.20;0.20;;;10.50;99.90;;;;;;5014391;28;20053;-77
2023/10/21 07:21:55;;;;;;;0.10;0.10;;;10.60;99.90;;;;;;5002157;28;20042;-78
2023/10/21 07:24:21;;;;;;;0.20;0.20;;;10.50;99.90;;;;;;5008044;28;20045;-76
2023/10/21 07:26:46;;;;;;;0.20;0.20;;;10.60;99.90;;;;;;5021077;28;20045;-78
2023/10/21 07:29:12;;;;;;;0.13;0.13;;;10.60;99.90;;;;;;5025062;28;20037;-77
2023/10/21 07:31:39;;;;;;;0.20;0.20;;;10.60;99.90;;;;;;5009730;28;20479;-77
2023/10/21 07:34:05;;;;;;;0.20;0.20;;;10.60;99.90;;;;;;5003760;28;20061;-78
2023/10/21 07:36:30;;;;;;;0.10;0.10;;;10.70;99.90;;;;;;5004417;28;20099;-77
2023/10/21 07:38:57;;;;;;;0.13;0.13;;;10.70;99.90;;;;;;5028233;28;20500;-77
2023/10/21 07:41:23;;;;;;;0.10;0.10;;;10.70;99.90;;;;;;5008947;28;20041;-77
2023/10/21 07:43:49;;;;;;;0.10;0.10;;;10.80;99.90;;;;;;5029557;28;20047;-78
2023/10/21 07:46:15;;;;;;;0.10;0.10;;;10.80;99.90;;;;;;5030871;28;20494;-78
2023/10/21 07:48:40;;;;;;;0.20;0.20;;;10.90;99.90;;;;;;5007192;28;20128;-77
2023/10/21 07:51:06;;;;;;;0.20;0.20;;;10.90;99.90;;;;;;5010275;28;20052;-77
2023/10/21 07:53:32;;;;;;;0.10;0.10;;;10.90;99.90;;;;;;5012771;28;20073;-77
2023/10/21 07:55:57;;;;;;;0.10;0.10;;;11.00;99.90;;;;;;5012175;28;20038;-77
2023/10/21 07:58:23;;;;;;;0.20;0.20;;;11.00;99.90;;;;;;5032786;28;20048;-76
2023/10/21 08:00:49;;;;;;;0.20;0.20;;;10.90;99.90;;;;;;5031552;28;20409;-79
2023/10/21 08:03:14;;;;;;;0.10;0.10;;;10.90;99.90;;;;;;5013572;28;20140;-77
2023/10/21 08:05:40;;;;;;;0.10;0.10;;;11.10;99.90;;;;;;5007734;28;20037;-77
2023/10/21 08:08:07;;;;;;;0.20;0.20;;;11.10;99.90;;;;;;5008751;28;20381;-77
2023/10/21 08:10:33;;;;;;;0.13;0.13;;;11.00;99.90;;;;;;4999798;28;20050;-79
2023/10/21 08:12:59;;;;;;;0.10;0.10;;;11.10;99.90;;;;;;5005608;28;20054;-76
2023/10/21 08:15:25;;;;;;;0.20;0.20;;;11.20;99.90;;;;;;5008193;28;20447;-76
2023/10/21 08:17:51;;;;;;;0.20;0.20;;;11.20;99.90;;;;;;5012370;28;20049;-78
2023/10/21 08:20:17;;;;;;;0.20;0.20;;;11.20;99.90;;;;;;5008942;28;20052;-77
2023/10/21 08:22:43;;;;;;;0.10;0.10;;;11.20;99.90;;;;;;5001678;28;20042;-75
2023/10/21 08:25:08;;;;;;;0.20;0.20;;;11.30;99.90;;;;;;5005928;28;20471;-77
2023/10/21 08:27:36;;;;;;;0.10;0.10;;;11.20;99.90;;;;;;5012216;28;20045;-80
2023/10/21 08:30:03;;;;;;;0.20;0.20;;;11.40;99.90;;;;;;5010347;28;20110;-77
2023/10/21 08:32:29;;;;;;;0.17;0.17;;;11.40;99.90;;;;;;5030311;28;20055;-77
2023/10/21 08:34:55;;;;;;;0.20;0.20;;;11.50;99.90;;;;;;5004764;28;20057;-77
2023/10/21 08:37:21;;;;;;;0.17;0.17;;;11.40;99.90;;;;;;5013571;28;21054;-76
2023/10/21 08:39:50;;;;;;;0.20;0.20;;;11.50;99.90;;;;;;5005869;28;20054;-78
2023/10/21 08:42:17;;;;;;;0.10;0.10;;;11.50;99.90;;;;;;5009267;28;20049;-78
2023/10/21 08:44:46;;;;;;;0.10;0.10;;;11.60;99.90;;;;;;5027763;28;20579;-81
2023/10/21 08:47:13;;;;;;;0.20;0.20;;;11.70;99.90;;;;;;5028299;28;20055;-77
2023/10/21 08:49:41;;;;;;;0.10;0.10;;;11.70;99.90;;;;;;5010752;28;20048;-78
2023/10/21 08:52:12;;;;;;;0.10;0.10;;;11.70;99.90;;;;;;5011069;28;20077;-77
2023/10/21 08:54:41;;;;;;;0.20;0.20;;;11.70;99.90;;;;;;5012665;28;20500;-78
2023/10/21 08:57:06;;;;;;;0.20;0.20;;;11.80;99.90;;;;;;5031243;28;20112;-77
2023/10/21 08:59:32;;;;;;;0.20;0.20;;;11.90;99.90;;;;;;5014604;28;20049;-77
2023/10/21 09:01:58;;;;;;;0.20;0.20;;;11.90;99.90;;;;;;5029426;28;20119;-77
2023/10/21 09:04:25;;;;;;;0.10;0.10;;;12.10;99.90;;;;;;5010984;28;20397;-78
2023/10/21 09:07:01;;;;;;;0.10;0.10;;;12.10;99.90;;;;;;5020346;28;20050;-78
2023/10/21 09:09:28;;;;;;;0.10;0.10;;;12.20;99.90;;;;;;5027815;28;20041;-78
2023/10/21 09:12:11;;;;;;;0.10;0.10;;;12.30;99.90;;;;;;5026910;28;20045;-78
2023/10/21 09:14:55;;;;;;;0.10;0.10;;;12.40;99.90;;;;;;5025782;28;20112;-78
2023/10/21 09:17:21;;;;;;;0.10;0.10;;;12.40;99.90;;;;;;5002979;28;20054;-76
2023/10/21 09:19:53;;;;;;;0.13;0.13;;;12.60;99.90;;;;;;5031711;28;20033;-79
2023/10/21 09:22:27;;;;;;;0.10;0.10;;;12.60;99.90;;;;;;5014702;28;20081;-77
2023/10/21 09:25:14;;;;;;;0.10;0.10;;;12.70;99.90;;;;;;5007218;28;20049;-82
2023/10/21 09:27:49;;;;;;;0.13;0.13;;;12.70;99.90;;;;;;5005487;28;20038;-77
2023/10/21 09:30:19;;;;;;;0.10;0.10;;;12.80;99.90;;;;;;5013265;28;20428;-76
2023/10/21 09:32:49;;;;;;;0.20;0.20;;;12.90;99.90;;;;;;5030857;28;20392;-77
2023/10/21 09:35:27;;;;;;;0.10;0.10;;;13.10;99.90;;;;;;5009163;28;20061;-77
2023/10/21 09:37:53;;;;;;;0.20;0.20;;;13.10;99.90;;;;;;5008903;28;20116;-78
2023/10/21 09:40:20;;;;;;;0.20;0.20;;;13.20;99.90;;;;;;5006345;28;20049;-77
2023/10/21 09:42:49;;;;;;;0.20;0.20;;;13.20;99.90;;;;;;5021916;28;20096;-77
2023/10/21 09:45:17;;;;;;;0.20;0.20;;;13.30;99.90;;;;;;5011396;28;20076;-77
2023/10/21 09:47:45;;;;;;;0.10;0.10;;;13.40;99.90;;;;;;5014565;28;20099;-76
2023/10/21 09:50:13;;;;;;;0.10;0.10;;;13.50;99.90;;;;;;5032224;28;20049;-77
2023/10/21 09:52:52;;;;;;;0.17;0.17;;;13.50;99.90;;;;;;5013658;28;20077;-76
2023/10/21 09:55:24;;;;;;;0.13;0.13;;;13.50;99.90;;;;;;5006472;28;20045;-78
2023/10/21 09:57:53;;;;;;;0.20;0.20;;;13.50;99.90;;;;;;5009496;28;20428;-78
2023/10/21 10:00:19;;;;;;;0.20;0.20;;;13.50;99.90;;;;;;5000479;28;20053;-77
2023/10/21 10:02:49;;;;;;;0.20;0.20;;;13.60;99.90;;;;;;5003751;28;20045;-78
2023/10/21 10:05:17;;;;;;;0.20;0.20;;;13.60;99.90;;;;;;5008904;28;20055;-78
2023/10/21 10:07:47;;;;;;;0.10;0.10;;;13.70;99.90;;;;;;5016936;28;20046;-78
2023/10/21 10:10:15;;;;;;;0.20;0.20;;;13.80;99.90;;;;;;5000981;28;20444;-78
2023/10/21 10:12:44;;;;;;;0.20;0.20;;;13.80;99.90;;;;;;5018718;28;20156;-77
2023/10/21 10:15:32;;;;;;;0.20;0.20;;;13.80;99.90;;;;;;4994607;28;20087;-77
2023/10/21 10:17:59;;;;;;;0.20;0.20;;;13.90;99.90;;;;;;5003100;28;20050;-78
2023/10/21 10:20:26;;;;;;;0.10;0.10;;;13.90;99.90;;;;;;5003832;28;20041;-78
2023/10/21 10:23:08;;;;;;;0.20;0.20;;;13.90;99.90;;;;;;5007892;28;20328;-76
2023/10/21 10:25:34;;;;;;;0.10;0.10;;;13.90;99.90;;;;;;5003509;28;20099;-81
2023/10/21 10:28:17;;;;;;;0.20;0.20;;;13.90;99.90;;;;;;5006938;28;20042;-78
2023/10/21 10:30:44;;;;;;;1.08;0.98;;;14.00;99.90;;;;;;5007959;28;20089;-78
2023/10/21 10:33:23;;;;;;;0.10;0.10;;;14.00;99.90;;;;;;5005569;28;20041;-78
2023/10/21 10:35:54;;;;;;;0.20;0.20;;;14.00;99.90;;;;;;5006597;28;20045;-77
2023/10/21 10:38:27;;;;;;;0.20;0.20;;;14.00;99.90;;;;;;5009907;28;20049;-77
2023/10/21 10:41:02;;;;;;;0.10;0.10;;;14.10;99.90;;;;;;5005774;28;20061;-78
2023/10/21 10:43:31;;;;;;;0.10;0.10;;;14.00;99.90;;;;;;5009753;28;20049;-78
2023/10/21 10:45:57;;;;;;;0.20;0.20;;;14.00;99.90;;;;;;5007538;28;20038;-79
2023/10/21 10:48:23;;;;;;;0.20;0.20;;;14.10;99.90;;;;;;5008288;28;20041;-78
2023/10/21 10:50:55;;;;;;;0.10;0.10;;;14.00;99.90;;;;;;5009269;28;20038;-79
2023/10/21 10:53:21;;;;;;;0.20;0.20;;;14.10;99.90;;;;;;5004396;28;20099;-79
2023/10/21 10:55:55;;;;;;;0.20;0.20;;;14.10;99.90;;;;;;5006603;28;20045;-79
2023/10/21 10:58:21;;;;;;;0.20;0.20;;;14.00;99.90;;;;;;5010264;28;20049;-79
2023/10/21 11:00:48;;;;;;;0.20;0.20;;;14.10;99.90;;;;;;5024770;28;20117;-79
2023/10/21 11:03:28;;;;;;;0.20;0.20;;;14.00;99.90;;;;;;5022900;28;20051;-80
2023/10/21 11:05:55;;;;;;;0.10;0.10;;;14.10;99.90;;;;;;5023490;28;20045;-80
2023/10/21 11:08:21;;;;;;;0.20;0.20;;;14.10;99.90;;;;;;5009792;28;20030;-80
2023/10/21 11:10:48;;;;;;;0.20;0.20;;;14.10;99.90;;;;;;5028075;28;20131;-80
2023/10/21 11:13:13;;;;;;;0.20;0.20;;;14.10;99.90;;;;;;5011596;28;20045;-79
2023/10/21 11:15:44;;;;;;;0.10;0.10;;;14.10;99.90;;;;;;5027143;28;20091;-80
2023/10/21 11:18:13;;;;;;;0.22;0.22;;;14.20;99.90;;;;;;5015967;28;20060;-80
2023/10/21 11:20:49;;;;;;;0.20;0.20;;;14.20;99.90;;;;;;5004842;28;20460;-80
2023/10/21 11:23:18;;;;;;;0.20;0.20;;;14.20;99.90;;;;;;5023542;28;20179;-79
2023/10/21 11:25:50;;;;;;;0.20;0.20;;;14.20;99.90;;;;;;4999039;28;20128;-80
2023/10/21 11:28:17;;;;;;;0.13;0.13;;;14.20;99.90;;;;;;5005837;28;20069;-79
2023/10/21 11:30:45;;;;;;;0.20;0.20;;;14.10;99.90;;;;;;5030024;28;20041;-79
2023/10/21 11:33:11;;;;;;;0.20;0.20;;;14.10;99.90;;;;;;5008566;28;20060;-78
2023/10/21 11:35:39;;;;;;;0.20;0.20;;;14.10;99.90;;;;;;5015144;28;20045;-78
2023/10/21 11:38:05;;;;;;;0.20;0.20;;;14.10;99.90;;;;;;5012575;28;20456;-77
2023/10/21 11:40:33;;;;;;;0.10;0.10;;;14.10;99.90;;;;;;5004278;28;20046;-75
2023/10/21 11:43:00;;;;;;;0.10;0.10;;;14.10;99.90;;;;;;5009425;28;20111;-75
2023/10/21 11:45:29;;;;;;;0.20;0.20;;;14.20;99.90;;;;;;5004727;28;20056;-75
2023/10/21 11:47:56;;;;;;;0.20;0.20;;;14.30;99.90;;;;;;5014233;28;20045;-77
2023/10/21 11:50:23;;;;;;;0.20;0.20;;;14.40;99.90;;;;;;5010380;28;20049;-77
2023/10/21 11:52:48;;;;;;;0.10;0.10;;;14.50;99.90;;;;;;5006162;28;20557;-76
2023/10/21 12:13:54;;;;;;;0.20;0.20;;;14.30;99.90;;;;;;5025214;28;20037;-74
2023/10/21 12:39:57;;;;;;;0.13;0.13;;;14.00;99.90;;;;;;5000593;28;20404;-75
2023/10/21 12:42:28;;;;;;;0.15;0.15;;;14.10;99.90;;;;;;5009826;28;20085;-74
2023/10/21 12:44:57;;;;;;;0.20;0.20;;;14.40;99.90;;;;;;5011349;28;20053;-76
2023/10/21 12:47:23;;;;;;;0.10;0.10;;;15.30;99.90;;;;;;5018290;28;20475;-74
2023/10/21 12:49:50;;;;;;;0.10;0.10;;;16.40;99.90;;;;;;5017700;28;20037;-76
2023/10/21 12:52:17;;;;;;;0.20;0.20;;;18.40;99.90;;;;;;5010438;28;20050;-76
2023/10/21 12:54:45;;;;;;;0.20;0.20;;;20.50;99.90;;;;;;5009351;28;20048;-74
2023/10/21 12:57:12;;;;;;;0.20;0.20;;;21.70;99.90;;;;;;5026435;28;20108;-75
2023/10/21 12:59:38;;;;;;;0.20;0.20;;;21.60;99.90;;;;;;5009422;28;20125;-75
2023/10/21 13:02:07;;;;;;;0.20;0.20;;;21.40;99.90;;;;;;5011252;28;20600;-75
2023/10/21 13:04:38;;;;;;;0.20;0.20;;;20.60;99.90;;;;;;5003353;28;20107;-72
2023/10/21 13:07:08;;;;;;;0.20;0.20;;;19.80;99.90;;;;;;5004734;28;20165;-73
2023/10/21 13:09:34;;;;;;;0.20;0.20;;;19.20;99.90;;;;;;5009083;28;20038;-72
2023/10/21 13:12:00;;;;;;;0.20;0.20;;;18.60;99.90;;;;;;5010446;28;20072;-72
2023/10/21 13:14:27;;;;;;;0.20;0.20;;;18.50;99.90;;;;;;5014545;28;20433;-76
2023/10/21 13:16:53;;;;;;;0.17;0.17;;;18.90;99.90;;;;;;5009222;28;20076;-76
2023/10/21 13:19:20;;;;;;;0.20;0.20;;;19.00;99.90;;;;;;5008259;28;20045;-74
2023/10/21 13:21:46;;;;;;;0.20;0.20;;;19.10;99.90;;;;;;5023239;28;20052;-74
2023/10/21 13:24:12;;;;;;;0.20;0.20;;;19.80;99.90;;;;;;5006055;28;20137;-74
2023/10/21 13:26:39;;;;;;;0.20;0.20;;;19.90;99.90;;;;;;5010936;28;20140;-71
2023/10/21 13:29:05;;;;;;;0.20;0.20;;;19.60;99.90;;;;;;5014341;28;20083;-74